Capitol Logistics 7442

Operating for MZN



KTPA
Tampa International Airport
Tampa, Florida
KRIC
Richmond International Airport
Richmond, Virginia

Activity Log

Date Flight Route Aircraft Duration
04/13/2021 CPX7442 BAYPO8 CAMJO Q99 TEEEM Q75 GSO J14 CREWE NEAVL DUCXS5 B738 1h 54m

Route Details

Aircraft Information
Primary: Boeing 737-800BCF
Backup: Boeing 757-200SF
Route Data
Distance: 619nm
Duration: 1h 34m
Recm'd Route: BAYPO8 CAMJO Q99 TEEEM Q75 GSO J14 CREWE NEAVL DUCXS5
Origin Wx: KTPA 142053Z 22007KT 10SM FEW050 FEW230 30/15 A3002 RMK AO2 SLP165 T03000150 58021 $
Dest. Wx: KRIC 142054Z 15007KT 10SM FEW040 BKN085 BKN150 22/12 A2994 RMK AO2 SLP141 60000 T02170122 56030
Notes: